Historyczne dane pomiarowe

Dodano dane terminowe – wersja testowa.

Dane z okresu 1951-2019

Wersja bazy: 1.34 [2019-03-16, lista zmian], aktualizacja planowana na 2019-04-15

Dane meteo z obszaru Polski uzyskane na podstawie danych udostępnionych przez Instytut Meteorologii i Gospodarki Wodnej – Państwowy Instytut Badawczy.

 

Wybierz Datę:    

       

TemperaturaWilgotnośćWiatrCiśnienieOpadyŚniegCzas trwania zjawisk
 Stacja t tx tn tng RH VA  wxwx mslp ppp RRR   cm mm wxwxwxwxwxwxwx
1970-05-15 9.4 14.7 7.4- 77.8- 5.3 1.0---- 0.0------------
1970-05-16 6.3 12.8 3.0- 80.0- 0.7 3.7---- 0.0------------
1970-05-17 7.8 12.8 1.5- 55.8- 0.0 4.3---- 0.0------------
1970-05-18 9.9 17.8 1.3- 71.0- 2.7 2.7---- 0.0------------
1970-05-19 10.3 13.3 4.2- 79.5- 8.0 3.7---- 1.7------------
1970-05-20 8.2 12.8 6.3- 73.0- 7.3 4.3---- 0.0------------
1970-05-21 10.0 13.7 7.4- 77.5- 8.0 5.0---- 0.4------------
1970-05-22 8.2 13.8 6.1- 74.0- 6.0 4.0---- 0.3------------
1970-05-23 7.8 10.2 6.0- 80.8- 8.0 2.7---- 0.0------------
1970-05-24 9.3 14.3 3.0- 57.3- 1.0 2.0---- 0.0------------
1970-05-25 12.0 19.2 2.4- 59.0- 2.3 2.3---- 0.0------------
1970-05-26 10.0 14.9 6.8- 83.3- 8.0 1.0---- 5.5------------
1970-05-27 9.1 11.3 7.3- 92.3- 8.0 2.0---- 10.3------------
1970-05-28 11.8 15.8 8.1- 88.5- 7.3 0.7---- 9.0------------
1970-05-29 10.2 12.5 8.9- 96.3- 8.0 1.0---- 4.5------------
1970-05-30 9.7 11.2 8.4- 95.0- 7.7 1.3---- 1.0------------
1970-05-31 9.6 12.9 7.5- 85.5- 4.3 3.0---- 0.1------------
1970-06-01 9.0 11.4 6.3- 86.3- 7.3 3.0---- 1.2------------
1970-06-02 8.2 11.8 7.4- 92.5- 8.0 3.3---- 0.1------------
1970-06-03 10.0 14.8 6.0- 66.3- 3.0 3.7---- 0.0------------
1970-06-04 12.0 15.8 4.0- 73.0- 5.3 4.7---- 0.0------------
1970-06-05 16.7 22.3 12.6- 80.3- 3.7 4.0---- 0.7------------
1970-06-06 16.8 21.5 12.0- 75.5- 3.0 2.7---- 0.0------------
1970-06-07 20.0 24.3 11.4- 68.0- 2.7 2.0---- 0.0------------
1970-06-08 20.0 24.8 11.9- 67.3- 2.3 2.0---- 0.0------------
1970-06-09 18.0 24.8 13.9- 77.5- 3.3 1.7---- 8.5------------
1970-06-10 19.2 23.9 13.3- 81.3- 2.7 1.7---- 0.0------------
1970-06-11 17.3 22.3 13.7- 81.5- 4.0 4.7---- 0.0------------
1970-06-12 11.1 18.9 7.3- 76.8- 2.7 6.0---- 4.8------------
1970-06-13 7.8 8.8 5.7- 96.5- 6.7 9.0---- 11.3------------
196.8 ms

 

Źródłem pochodzenia danych jest Instytut Meteorologii i Gospodarki Wodnej – Państwowy Instytut Badawczy. Dane Instytutu Meteorologii i Gospodarki Wodnej – Państwowego Instytutu Badawczego zostały przetworzone.

Dane źródłowe można odnaleźć na stronie https://dane.imgw.pl